EDT,Max TemperatureF,Mean TemperatureF,Min TemperatureF,Max Dew PointF,MeanDew PointF,Min DewpointF,Max Humidity, Mean Humidity, Min Humidity, Max Sea Level PressureIn, Mean Sea Level PressureIn, Min Sea Level PressureIn, Max VisibilityMiles, Mean VisibilityMiles, Min VisibilityMiles, Max Wind SpeedMPH, Mean Wind SpeedMPH, Max Gust SpeedMPH,PrecipitationIn, CloudCover, Events, WindDirDegrees
2013-7-1,80,76,71,73,72,70,100,92,74,30.03,29.94,29.88,10,9,1,14,8,18,0.00,6,Rain-Thunderstorm,170
2013-7-2,86,78,71,75,71,70,100,91,58,30.12,30.05,29.99,15,10,4,23,6,34,0.00,6,Rain,136
2013-7-3,89,80,71,75,72,70,100,92,55,30.15,30.10,30.07,15,10,2,16,5,23,0.00,5,Rain,117
2013-7-4,87,79,71,73,70,64,100,88,55,30.18,30.12,30.09,15,10,1,25,6,39,0.00,4,Rain-Thunderstorm,114
2013-7-5,87,79,71,75,71,70,100,88,58,30.19,30.13,30.09,15,8,2,15,4,20,0.00,3,Rain,104
2013-7-6,89,81,73,73,70,64,94,80,43,30.14,30.10,30.05,15,11,8,12,5,20,0.00,3,,106
2013-7-7,89,81,73,73,71,66,94,76,46,30.15,30.11,30.05,15,12,8,16,6,22,0.00,2,,96
2013-7-8,91,82,73,73,71,64,94,75,43,30.18,30.14,30.09,15,12,8,12,5,17,0.00,2,,93
2013-7-9,91,81,71,73,70,63,100,76,38,30.19,30.14,30.08,20,12,7,13,4,21,0.00,2,,86
2013-7-10,91,81,71,73,70,64,94,79,43,30.11,30.07,29.99,20,12,10,12,3,,0.00,2,,96
2013-7-11,87,79,71,73,71,66,94,84,49,30.06,30.01,29.95,20,12,10,12,3,21,0.00,3,,174
2013-7-12,84,78,71,73,71,66,94,87,65,29.98,29.95,29.92,20,12,10,9,1,,0.00,3,Rain,185
2013-7-13,87,79,71,73,71,70,100,89,55,30.02,29.96,29.94,15,11,7,12,2,21,0.00,3,,134
2013-7-14,89,80,71,73,71,70,100,90,55,30.11,30.03,29.99,12,10,0,21,5,31,0.00,4,Rain-Thunderstorm,131
2013-7-15,89,80,71,72,70,64,100,83,46,30.13,30.10,30.04,15,11,7,12,3,,0.00,4,,80
2013-7-16,87,80,73,73,71,66,94,88,49,30.17,30.13,30.10,20,12,1,18,7,29,0.00,3,Rain,77
2013-7-17,89,80,71,73,71,68,94,85,52,30.18,30.14,30.09,20,11,8,17,7,26,0.00,3,Rain,66
2013-7-18,87,79,71,73,71,68,100,89,52,30.14,30.11,30.07,15,11,5,14,4,20,0.00,3,Rain,76
2013-7-19,87,78,69,72,71,70,100,90,55,30.15,30.11,30.06,15,10,1,13,3,18,0.00,4,Rain-Thunderstorm,133
2013-7-20,91,81,71,75,71,70,100,89,49,30.13,30.09,30.04,15,10,0,18,2,28,0.00,4,Rain-Thunderstorm,135
2013-7-21,89,80,71,77,72,70,100,86,55,30.15,30.10,30.06,15,11,2,10,1,,0.00,3,Thunderstorm,185
2013-7-22,91,82,73,77,72,68,94,84,46,30.15,30.11,30.05,15,11,10,12,2,18,0.00,3,,182
2013-7-23,87,80,73,75,72,70,100,90,55,30.12,30.07,30.01,15,8,5,17,2,25,0.00,3,Rain,232
2013-7-24,89,80,71,75,72,70,100,86,52,30.03,29.97,29.92,10,9,7,14,5,20,0.00,4,,230
2013-7-25,86,78,71,75,73,70,100,88,58,30.02,29.95,29.90,10,8,1,16,5,18,0.00,7,Rain-Thunderstorm,234
2013-7-26,89,81,73,75,72,70,100,85,55,30.03,30.00,29.97,12,8,0,10,3,,0.00,4,Fog-Thunderstorm,279
2013-7-27,91,82,73,75,71,64,100,78,43,30.02,29.98,29.93,12,9,5,10,2,,0.00,3,,310
2013-7-28,89,81,73,75,72,66,100,86,46,30.09,30.01,29.96,12,8,4,8,1,,0.00,3,Rain,199
2013-7-29,93,82,71,73,70,64,100,81,38,30.17,30.10,30.04,15,9,5,8,1,,0.00,1,,142
2013-7-30,95,84,73,75,71,64,94,79,36,30.20,30.15,30.09,20,12,7,12,1,17,0.00,2,Rain,104
2013-7-31,93,83,73,75,72,66,94,79,43,30.16,30.10,30.03,15,10,7,18,2,29,0.00,3,Rain-Thunderstorm,73